sensor_id;sensor_type;location;lat;lon;timestamp;P1;durP1;ratioP1;P2;durP2;ratioP2
11984;SDS011;6052;53.246;10.368;2024-03-08T00:00:55;13.60;;;8.03;;
11984;SDS011;6052;53.246;10.368;2024-03-08T00:03:25;15.73;;;7.90;;
11984;SDS011;6052;53.246;10.368;2024-03-08T00:05:55;12.80;;;7.40;;
11984;SDS011;6052;53.246;10.368;2024-03-08T00:08:29;13.43;;;8.03;;
11984;SDS011;6052;53.246;10.368;2024-03-08T00:10:59;13.77;;;7.97;;
11984;SDS011;6052;53.246;10.368;2024-03-08T00:13:28;14.27;;;7.60;;
11984;SDS011;6052;53.246;10.368;2024-03-08T00:15:58;14.80;;;7.87;;
11984;SDS011;6052;53.246;10.368;2024-03-08T00:18:28;14.77;;;7.60;;
11984;SDS011;6052;53.246;10.368;2024-03-08T00:20:59;13.30;;;7.60;;
11984;SDS011;6052;53.246;10.368;2024-03-08T00:23:31;14.47;;;7.87;;
11984;SDS011;6052;53.246;10.368;2024-03-08T00:26:02;18.87;;;8.23;;
11984;SDS011;6052;53.246;10.368;2024-03-08T00:28:33;12.73;;;7.23;;
11984;SDS011;6052;53.246;10.368;2024-03-08T00:31:03;14.60;;;7.87;;
11984;SDS011;6052;53.246;10.368;2024-03-08T00:33:33;13.23;;;7.37;;
11984;SDS011;6052;53.246;10.368;2024-03-08T00:36:04;13.00;;;8.13;;
11984;SDS011;6052;53.246;10.368;2024-03-08T00:38:37;13.97;;;7.67;;
11984;SDS011;6052;53.246;10.368;2024-03-08T00:41:07;12.03;;;6.97;;
11984;SDS011;6052;53.246;10.368;2024-03-08T00:43:37;15.30;;;7.83;;
11984;SDS011;6052;53.246;10.368;2024-03-08T00:46:07;16.63;;;8.83;;
11984;SDS011;6052;53.246;10.368;2024-03-08T00:48:37;15.03;;;7.43;;
11984;SDS011;6052;53.246;10.368;2024-03-08T00:51:10;13.10;;;7.33;;
11984;SDS011;6052;53.246;10.368;2024-03-08T00:53:44;11.03;;;6.53;;
11984;SDS011;6052;53.246;10.368;2024-03-08T00:56:14;13.83;;;8.23;;
11984;SDS011;6052;53.246;10.368;2024-03-08T00:58:44;14.53;;;7.27;;
11984;SDS011;6052;53.246;10.368;2024-03-08T01:01:13;13.40;;;7.63;;
11984;SDS011;6052;53.246;10.368;2024-03-08T01:03:44;13.70;;;7.87;;
11984;SDS011;6052;53.246;10.368;2024-03-08T01:06:15;12.77;;;7.30;;
11984;SDS011;6052;53.246;10.368;2024-03-08T01:08:47;12.20;;;7.27;;
11984;SDS011;6052;53.246;10.368;2024-03-08T01:11:20;15.70;;;7.37;;
11984;SDS011;6052;53.246;10.368;2024-03-08T01:13:50;12.87;;;7.00;;
11984;SDS011;6052;53.246;10.368;2024-03-08T01:16:20;15.90;;;7.67;;
11984;SDS011;6052;53.246;10.368;2024-03-08T01:18:50;15.43;;;7.57;;
11984;SDS011;6052;53.246;10.368;2024-03-08T01:21:20;14.13;;;7.47;;
11984;SDS011;6052;53.246;10.368;2024-03-08T01:23:53;14.07;;;7.93;;
11984;SDS011;6052;53.246;10.368;2024-03-08T01:26:22;15.47;;;7.90;;
11984;SDS011;6052;53.246;10.368;2024-03-08T01:28:52;12.07;;;7.17;;
11984;SDS011;6052;53.246;10.368;2024-03-08T01:31:22;13.47;;;7.23;;
11984;SDS011;6052;53.246;10.368;2024-03-08T01:33:52;12.90;;;6.90;;
11984;SDS011;6052;53.246;10.368;2024-03-08T01:36:22;12.73;;;7.33;;
11984;SDS011;6052;53.246;10.368;2024-03-08T01:38:54;15.97;;;8.10;;
11984;SDS011;6052;53.246;10.368;2024-03-08T01:41:24;12.47;;;6.70;;
11984;SDS011;6052;53.246;10.368;2024-03-08T01:43:56;14.77;;;7.20;;
11984;SDS011;6052;53.246;10.368;2024-03-08T01:46:26;15.83;;;8.07;;
11984;SDS011;6052;53.246;10.368;2024-03-08T01:48:57;14.40;;;7.87;;
11984;SDS011;6052;53.246;10.368;2024-03-08T01:51:28;13.43;;;7.60;;
11984;SDS011;6052;53.246;10.368;2024-03-08T01:54:01;12.33;;;7.67;;
11984;SDS011;6052;53.246;10.368;2024-03-08T01:56:32;14.17;;;7.50;;
11984;SDS011;6052;53.246;10.368;2024-03-08T01:59:02;16.67;;;7.97;;
11984;SDS011;6052;53.246;10.368;2024-03-08T02:01:34;14.23;;;7.87;;
11984;SDS011;6052;53.246;10.368;2024-03-08T02:04:04;14.03;;;7.73;;
11984;SDS011;6052;53.246;10.368;2024-03-08T02:06:35;17.30;;;8.53;;
11984;SDS011;6052;53.246;10.368;2024-03-08T02:09:07;14.80;;;7.90;;
11984;SDS011;6052;53.246;10.368;2024-03-08T02:11:37;13.27;;;7.73;;
11984;SDS011;6052;53.246;10.368;2024-03-08T02:14:09;13.17;;;6.87;;
11984;SDS011;6052;53.246;10.368;2024-03-08T02:16:39;13.63;;;8.17;;
11984;SDS011;6052;53.246;10.368;2024-03-08T02:19:09;13.77;;;6.93;;
11984;SDS011;6052;53.246;10.368;2024-03-08T02:21:42;13.03;;;7.77;;
11984;SDS011;6052;53.246;10.368;2024-03-08T02:24:14;15.03;;;7.00;;
11984;SDS011;6052;53.246;10.368;2024-03-08T02:26:44;12.77;;;6.37;;
11984;SDS011;6052;53.246;10.368;2024-03-08T02:29:14;14.37;;;7.27;;
11984;SDS011;6052;53.246;10.368;2024-03-08T02:31:44;12.90;;;7.57;;
11984;SDS011;6052;53.246;10.368;2024-03-08T02:34:14;13.67;;;7.00;;
11984;SDS011;6052;53.246;10.368;2024-03-08T02:36:46;14.07;;;8.07;;
11984;SDS011;6052;53.246;10.368;2024-03-08T02:39:16;13.00;;;7.00;;
11984;SDS011;6052;53.246;10.368;2024-03-08T02:41:46;12.33;;;7.27;;
11984;SDS011;6052;53.246;10.368;2024-03-08T02:44:16;11.20;;;6.70;;
11984;SDS011;6052;53.246;10.368;2024-03-08T02:46:48;13.07;;;7.33;;
11984;SDS011;6052;53.246;10.368;2024-03-08T02:49:17;14.30;;;8.23;;
11984;SDS011;6052;53.246;10.368;2024-03-08T02:51:50;13.97;;;7.60;;
11984;SDS011;6052;53.246;10.368;2024-03-08T02:54:20;14.27;;;8.00;;
11984;SDS011;6052;53.246;10.368;2024-03-08T02:56:50;14.30;;;7.50;;
11984;SDS011;6052;53.246;10.368;2024-03-08T02:59:20;11.80;;;7.33;;
11984;SDS011;6052;53.246;10.368;2024-03-08T03:01:50;13.03;;;7.47;;
11984;SDS011;6052;53.246;10.368;2024-03-08T03:04:20;16.70;;;7.47;;
11984;SDS011;6052;53.246;10.368;2024-03-08T03:06:52;12.20;;;7.63;;
11984;SDS011;6052;53.246;10.368;2024-03-08T03:09:22;13.40;;;8.07;;
11984;SDS011;6052;53.246;10.368;2024-03-08T03:11:54;13.47;;;7.70;;
11984;SDS011;6052;53.246;10.368;2024-03-08T03:14:24;13.60;;;7.47;;
11984;SDS011;6052;53.246;10.368;2024-03-08T03:16:55;13.43;;;7.07;;
11984;SDS011;6052;53.246;10.368;2024-03-08T03:19:25;13.93;;;7.70;;
11984;SDS011;6052;53.246;10.368;2024-03-08T03:21:58;15.17;;;7.70;;
11984;SDS011;6052;53.246;10.368;2024-03-08T03:24:29;15.10;;;7.83;;
11984;SDS011;6052;53.246;10.368;2024-03-08T03:26:59;15.27;;;7.87;;
11984;SDS011;6052;53.246;10.368;2024-03-08T03:29:37;16.37;;;8.07;;
11984;SDS011;6052;53.246;10.368;2024-03-08T03:32:08;13.40;;;7.17;;
11984;SDS011;6052;53.246;10.368;2024-03-08T03:34:38;12.50;;;7.07;;
11984;SDS011;6052;53.246;10.368;2024-03-08T03:37:13;15.73;;;7.47;;
11984;SDS011;6052;53.246;10.368;2024-03-08T03:39:44;13.03;;;6.87;;
11984;SDS011;6052;53.246;10.368;2024-03-08T03:42:19;11.57;;;7.53;;
11984;SDS011;6052;53.246;10.368;2024-03-08T03:44:50;14.40;;;7.17;;
11984;SDS011;6052;53.246;10.368;2024-03-08T03:47:20;14.87;;;7.97;;
11984;SDS011;6052;53.246;10.368;2024-03-08T03:49:50;12.97;;;7.03;;
11984;SDS011;6052;53.246;10.368;2024-03-08T03:52:22;19.53;;;8.20;;
11984;SDS011;6052;53.246;10.368;2024-03-08T03:54:52;15.87;;;7.67;;
11984;SDS011;6052;53.246;10.368;2024-03-08T03:57:23;13.30;;;7.63;;
11984;SDS011;6052;53.246;10.368;2024-03-08T03:59:52;15.33;;;7.60;;
11984;SDS011;6052;53.246;10.368;2024-03-08T04:02:23;15.80;;;8.33;;
11984;SDS011;6052;53.246;10.368;2024-03-08T04:04:55;15.90;;;7.77;;
11984;SDS011;6052;53.246;10.368;2024-03-08T04:07:28;15.63;;;8.17;;
11984;SDS011;6052;53.246;10.368;2024-03-08T04:09:58;15.00;;;7.37;;
11984;SDS011;6052;53.246;10.368;2024-03-08T04:12:27;18.87;;;8.37;;
11984;SDS011;6052;53.246;10.368;2024-03-08T04:14:58;16.47;;;8.60;;
11984;SDS011;6052;53.246;10.368;2024-03-08T04:17:28;14.17;;;8.73;;
11984;SDS011;6052;53.246;10.368;2024-03-08T04:19:58;13.87;;;7.40;;
11984;SDS011;6052;53.246;10.368;2024-03-08T04:22:33;13.70;;;8.17;;
11984;SDS011;6052;53.246;10.368;2024-03-08T04:25:03;13.73;;;7.83;;
11984;SDS011;6052;53.246;10.368;2024-03-08T04:27:33;14.87;;;8.20;;
11984;SDS011;6052;53.246;10.368;2024-03-08T04:30:04;12.17;;;7.20;;
11984;SDS011;6052;53.246;10.368;2024-03-08T04:32:35;15.90;;;8.10;;
11984;SDS011;6052;53.246;10.368;2024-03-08T04:35:05;15.83;;;8.10;;
11984;SDS011;6052;53.246;10.368;2024-03-08T04:37:38;14.77;;;8.23;;
11984;SDS011;6052;53.246;10.368;2024-03-08T04:40:09;14.37;;;8.07;;
11984;SDS011;6052;53.246;10.368;2024-03-08T04:42:39;13.03;;;7.73;;
11984;SDS011;6052;53.246;10.368;2024-03-08T04:45:11;15.40;;;8.27;;
11984;SDS011;6052;53.246;10.368;2024-03-08T04:47:41;15.33;;;8.37;;
11984;SDS011;6052;53.246;10.368;2024-03-08T04:50:11;16.50;;;8.63;;
11984;SDS011;6052;53.246;10.368;2024-03-08T04:52:43;16.77;;;9.23;;
11984;SDS011;6052;53.246;10.368;2024-03-08T04:55:14;12.83;;;7.30;;
11984;SDS011;6052;53.246;10.368;2024-03-08T04:57:47;15.97;;;8.10;;
11984;SDS011;6052;53.246;10.368;2024-03-08T05:00:17;16.97;;;8.23;;
11984;SDS011;6052;53.246;10.368;2024-03-08T05:02:47;17.63;;;8.73;;
11984;SDS011;6052;53.246;10.368;2024-03-08T05:05:20;18.20;;;8.00;;
11984;SDS011;6052;53.246;10.368;2024-03-08T05:07:52;17.40;;;8.60;;
11984;SDS011;6052;53.246;10.368;2024-03-08T05:10:22;13.80;;;7.53;;
11984;SDS011;6052;53.246;10.368;2024-03-08T05:12:51;15.07;;;8.07;;
11984;SDS011;6052;53.246;10.368;2024-03-08T05:15:23;16.87;;;9.33;;
11984;SDS011;6052;53.246;10.368;2024-03-08T05:17:53;12.53;;;7.93;;
11984;SDS011;6052;53.246;10.368;2024-03-08T05:20:24;15.70;;;8.03;;
11984;SDS011;6052;53.246;10.368;2024-03-08T05:22:56;16.07;;;9.00;;
11984;SDS011;6052;53.246;10.368;2024-03-08T05:25:27;16.53;;;8.70;;
11984;SDS011;6052;53.246;10.368;2024-03-08T05:27:56;15.87;;;8.43;;
11984;SDS011;6052;53.246;10.368;2024-03-08T05:30:26;19.33;;;9.20;;
11984;SDS011;6052;53.246;10.368;2024-03-08T05:32:56;12.40;;;8.13;;
11984;SDS011;6052;53.246;10.368;2024-03-08T05:35:26;18.13;;;9.00;;
11984;SDS011;6052;53.246;10.368;2024-03-08T05:37:58;15.60;;;8.03;;
11984;SDS011;6052;53.246;10.368;2024-03-08T05:40:28;16.37;;;8.67;;
11984;SDS011;6052;53.246;10.368;2024-03-08T05:42:58;17.50;;;8.57;;
11984;SDS011;6052;53.246;10.368;2024-03-08T05:45:28;17.83;;;8.67;;
11984;SDS011;6052;53.246;10.368;2024-03-08T05:47:58;21.67;;;9.00;;
11984;SDS011;6052;53.246;10.368;2024-03-08T05:50:28;19.30;;;8.70;;
11984;SDS011;6052;53.246;10.368;2024-03-08T05:53:00;19.87;;;9.33;;
11984;SDS011;6052;53.246;10.368;2024-03-08T05:55:33;13.93;;;8.57;;
11984;SDS011;6052;53.246;10.368;2024-03-08T05:58:03;13.67;;;7.97;;
11984;SDS011;6052;53.246;10.368;2024-03-08T06:00:34;14.40;;;7.93;;
11984;SDS011;6052;53.246;10.368;2024-03-08T06:03:04;19.93;;;8.97;;
11984;SDS011;6052;53.246;10.368;2024-03-08T06:05:34;16.70;;;9.10;;
11984;SDS011;6052;53.246;10.368;2024-03-08T06:08:11;17.77;;;8.87;;
11984;SDS011;6052;53.246;10.368;2024-03-08T06:10:41;19.23;;;9.27;;
11984;SDS011;6052;53.246;10.368;2024-03-08T06:13:11;19.10;;;9.50;;
11984;SDS011;6052;53.246;10.368;2024-03-08T06:15:41;20.17;;;8.83;;
11984;SDS011;6052;53.246;10.368;2024-03-08T06:18:11;14.90;;;8.33;;
11984;SDS011;6052;53.246;10.368;2024-03-08T06:20:41;17.17;;;9.10;;
11984;SDS011;6052;53.246;10.368;2024-03-08T06:23:15;18.30;;;8.90;;
11984;SDS011;6052;53.246;10.368;2024-03-08T06:25:46;20.77;;;9.10;;
11984;SDS011;6052;53.246;10.368;2024-03-08T06:28:15;20.40;;;9.70;;
11984;SDS011;6052;53.246;10.368;2024-03-08T06:30:45;20.80;;;9.53;;
11984;SDS011;6052;53.246;10.368;2024-03-08T06:33:17;17.93;;;9.00;;
11984;SDS011;6052;53.246;10.368;2024-03-08T06:35:47;21.63;;;9.37;;
11984;SDS011;6052;53.246;10.368;2024-03-08T06:38:19;15.80;;;8.87;;
11984;SDS011;6052;53.246;10.368;2024-03-08T06:40:49;15.20;;;7.83;;
11984;SDS011;6052;53.246;10.368;2024-03-08T06:43:19;18.93;;;7.90;;
11984;SDS011;6052;53.246;10.368;2024-03-08T06:45:51;16.33;;;8.70;;
11984;SDS011;6052;53.246;10.368;2024-03-08T06:48:21;16.20;;;8.70;;
11984;SDS011;6052;53.246;10.368;2024-03-08T06:50:51;18.37;;;8.83;;
11984;SDS011;6052;53.246;10.368;2024-03-08T06:53:24;15.83;;;8.73;;
11984;SDS011;6052;53.246;10.368;2024-03-08T06:55:54;17.27;;;8.63;;
11984;SDS011;6052;53.246;10.368;2024-03-08T06:58:24;17.90;;;8.73;;
11984;SDS011;6052;53.246;10.368;2024-03-08T07:00:54;18.67;;;8.87;;
11984;SDS011;6052;53.246;10.368;2024-03-08T07:03:24;19.87;;;9.00;;
11984;SDS011;6052;53.246;10.368;2024-03-08T07:05:56;16.80;;;8.60;;
11984;SDS011;6052;53.246;10.368;2024-03-08T07:08:28;19.03;;;9.53;;
11984;SDS011;6052;53.246;10.368;2024-03-08T07:10:59;16.87;;;9.50;;
11984;SDS011;6052;53.246;10.368;2024-03-08T07:13:30;17.33;;;8.80;;
11984;SDS011;6052;53.246;10.368;2024-03-08T07:15:59;19.67;;;9.60;;
11984;SDS011;6052;53.246;10.368;2024-03-08T07:18:30;17.93;;;9.37;;
11984;SDS011;6052;53.246;10.368;2024-03-08T07:21:01;20.27;;;9.70;;
11984;SDS011;6052;53.246;10.368;2024-03-08T07:23:33;15.10;;;8.73;;
11984;SDS011;6052;53.246;10.368;2024-03-08T07:26:29;18.93;;;9.67;;
11984;SDS011;6052;53.246;10.368;2024-03-08T07:28:59;18.17;;;8.93;;
11984;SDS011;6052;53.246;10.368;2024-03-08T07:31:29;19.37;;;8.77;;
11984;SDS011;6052;53.246;10.368;2024-03-08T07:34:11;17.23;;;9.43;;
11984;SDS011;6052;53.246;10.368;2024-03-08T07:36:43;19.53;;;8.90;;
11984;SDS011;6052;53.246;10.368;2024-03-08T07:39:15;17.07;;;9.23;;
11984;SDS011;6052;53.246;10.368;2024-03-08T07:41:45;19.50;;;9.63;;
11984;SDS011;6052;53.246;10.368;2024-03-08T07:44:15;21.03;;;9.63;;
11984;SDS011;6052;53.246;10.368;2024-03-08T07:46:45;21.03;;;10.93;;
11984;SDS011;6052;53.246;10.368;2024-03-08T07:49:15;20.33;;;10.30;;
11984;SDS011;6052;53.246;10.368;2024-03-08T07:51:45;23.70;;;10.77;;
11984;SDS011;6052;53.246;10.368;2024-03-08T07:54:18;20.53;;;10.40;;
11984;SDS011;6052;53.246;10.368;2024-03-08T07:56:48;21.43;;;10.17;;
11984;SDS011;6052;53.246;10.368;2024-03-08T07:59:19;21.77;;;10.97;;
11984;SDS011;6052;53.246;10.368;2024-03-08T08:01:49;17.67;;;9.57;;
11984;SDS011;6052;53.246;10.368;2024-03-08T08:04:19;21.57;;;10.33;;
11984;SDS011;6052;53.246;10.368;2024-03-08T08:06:51;21.63;;;10.23;;
11984;SDS011;6052;53.246;10.368;2024-03-08T08:09:24;21.87;;;10.83;;
11984;SDS011;6052;53.246;10.368;2024-03-08T08:12:01;20.73;;;10.20;;
11984;SDS011;6052;53.246;10.368;2024-03-08T08:14:31;23.20;;;10.70;;
11984;SDS011;6052;53.246;10.368;2024-03-08T08:17:01;17.13;;;9.37;;
11984;SDS011;6052;53.246;10.368;2024-03-08T08:19:31;23.00;;;10.30;;
11984;SDS011;6052;53.246;10.368;2024-03-08T08:22:01;18.13;;;9.73;;
11984;SDS011;6052;53.246;10.368;2024-03-08T08:24:37;20.80;;;11.07;;
11984;SDS011;6052;53.246;10.368;2024-03-08T08:27:06;17.53;;;9.73;;
11984;SDS011;6052;53.246;10.368;2024-03-08T08:32:49;20.87;;;10.70;;
11984;SDS011;6052;53.246;10.368;2024-03-08T08:35:19;20.93;;;10.17;;
11984;SDS011;6052;53.246;10.368;2024-03-08T08:37:49;20.37;;;10.93;;
11984;SDS011;6052;53.246;10.368;2024-03-08T08:40:28;17.47;;;10.27;;
11984;SDS011;6052;53.246;10.368;2024-03-08T08:42:58;23.90;;;11.23;;
11984;SDS011;6052;53.246;10.368;2024-03-08T08:45:31;21.93;;;10.63;;
11984;SDS011;6052;53.246;10.368;2024-03-08T08:48:04;21.10;;;10.57;;
11984;SDS011;6052;53.246;10.368;2024-03-08T08:50:39;22.37;;;10.47;;
11984;SDS011;6052;53.246;10.368;2024-03-08T08:53:13;19.90;;;10.57;;
11984;SDS011;6052;53.246;10.368;2024-03-08T08:55:54;20.17;;;10.83;;
11984;SDS011;6052;53.246;10.368;2024-03-08T08:58:24;21.87;;;11.43;;
11984;SDS011;6052;53.246;10.368;2024-03-08T09:00:54;19.97;;;10.83;;
11984;SDS011;6052;53.246;10.368;2024-03-08T09:03:24;23.20;;;11.53;;
11984;SDS011;6052;53.246;10.368;2024-03-08T09:05:55;18.83;;;11.23;;
11984;SDS011;6052;53.246;10.368;2024-03-08T09:08:25;19.47;;;10.27;;
11984;SDS011;6052;53.246;10.368;2024-03-08T09:11:01;19.20;;;11.67;;
11984;SDS011;6052;53.246;10.368;2024-03-08T09:13:32;19.07;;;9.97;;
11984;SDS011;6052;53.246;10.368;2024-03-08T09:16:03;20.73;;;10.57;;
11984;SDS011;6052;53.246;10.368;2024-03-08T09:18:34;17.37;;;10.60;;
11984;SDS011;6052;53.246;10.368;2024-03-08T09:21:03;20.47;;;11.07;;
11984;SDS011;6052;53.246;10.368;2024-03-08T09:23:36;22.77;;;10.90;;
11984;SDS011;6052;53.246;10.368;2024-03-08T09:26:10;20.10;;;11.13;;
11984;SDS011;6052;53.246;10.368;2024-03-08T09:28:54;24.43;;;11.67;;
11984;SDS011;6052;53.246;10.368;2024-03-08T09:31:24;21.57;;;11.80;;
11984;SDS011;6052;53.246;10.368;2024-03-08T09:33:54;19.47;;;10.93;;
11984;SDS011;6052;53.246;10.368;2024-03-08T09:36:23;20.20;;;11.40;;
11984;SDS011;6052;53.246;10.368;2024-03-08T09:38:54;21.10;;;11.23;;
11984;SDS011;6052;53.246;10.368;2024-03-08T09:41:26;20.57;;;11.87;;
11984;SDS011;6052;53.246;10.368;2024-03-08T09:43:57;23.67;;;11.67;;
11984;SDS011;6052;53.246;10.368;2024-03-08T09:46:28;20.43;;;11.90;;
11984;SDS011;6052;53.246;10.368;2024-03-08T09:48:58;20.33;;;12.17;;
11984;SDS011;6052;53.246;10.368;2024-03-08T09:51:28;19.17;;;11.50;;
11984;SDS011;6052;53.246;10.368;2024-03-08T09:53:58;17.60;;;10.23;;
11984;SDS011;6052;53.246;10.368;2024-03-08T09:56:45;18.73;;;11.40;;
11984;SDS011;6052;53.246;10.368;2024-03-08T09:59:16;20.43;;;11.40;;
11984;SDS011;6052;53.246;10.368;2024-03-08T10:02:08;19.70;;;10.80;;
11984;SDS011;6052;53.246;10.368;2024-03-08T10:04:44;18.93;;;10.93;;
11984;SDS011;6052;53.246;10.368;2024-03-08T10:07:15;20.93;;;10.67;;
11984;SDS011;6052;53.246;10.368;2024-03-08T10:09:45;21.23;;;11.47;;
11984;SDS011;6052;53.246;10.368;2024-03-08T10:12:19;21.33;;;11.90;;
11984;SDS011;6052;53.246;10.368;2024-03-08T10:14:49;18.93;;;10.97;;
11984;SDS011;6052;53.246;10.368;2024-03-08T10:17:20;18.03;;;10.70;;
11984;SDS011;6052;53.246;10.368;2024-03-08T10:19:50;16.57;;;10.77;;
11984;SDS011;6052;53.246;10.368;2024-03-08T10:22:21;20.53;;;10.70;;
11984;SDS011;6052;53.246;10.368;2024-03-08T10:24:50;18.50;;;10.53;;
11984;SDS011;6052;53.246;10.368;2024-03-08T10:27:23;18.00;;;10.10;;
11984;SDS011;6052;53.246;10.368;2024-03-08T10:29:53;19.63;;;10.03;;
11984;SDS011;6052;53.246;10.368;2024-03-08T10:32:25;19.60;;;11.17;;
11984;SDS011;6052;53.246;10.368;2024-03-08T10:34:55;17.47;;;9.63;;
11984;SDS011;6052;53.246;10.368;2024-03-08T10:37:25;19.10;;;10.70;;
11984;SDS011;6052;53.246;10.368;2024-03-08T10:39:58;16.13;;;9.80;;
11984;SDS011;6052;53.246;10.368;2024-03-08T10:42:41;17.83;;;9.33;;
11984;SDS011;6052;53.246;10.368;2024-03-08T10:45:23;15.53;;;10.40;;
11984;SDS011;6052;53.246;10.368;2024-03-08T10:48:10;19.17;;;9.83;;
11984;SDS011;6052;53.246;10.368;2024-03-08T10:50:51;16.70;;;9.73;;
11984;SDS011;6052;53.246;10.368;2024-03-08T10:53:21;17.20;;;9.60;;
11984;SDS011;6052;53.246;10.368;2024-03-08T10:55:52;15.27;;;9.77;;
11984;SDS011;6052;53.246;10.368;2024-03-08T10:58:25;15.77;;;9.10;;
11984;SDS011;6052;53.246;10.368;2024-03-08T11:00:56;17.53;;;9.70;;
11984;SDS011;6052;53.246;10.368;2024-03-08T11:06:16;17.30;;;10.03;;
11984;SDS011;6052;53.246;10.368;2024-03-08T11:08:49;16.57;;;10.07;;
11984;SDS011;6052;53.246;10.368;2024-03-08T11:11:25;16.07;;;9.60;;
11984;SDS011;6052;53.246;10.368;2024-03-08T11:14:03;19.00;;;9.83;;
11984;SDS011;6052;53.246;10.368;2024-03-08T11:16:39;18.97;;;10.17;;
11984;SDS011;6052;53.246;10.368;2024-03-08T11:19:25;16.37;;;9.97;;
11984;SDS011;6052;53.246;10.368;2024-03-08T11:22:00;18.10;;;9.60;;
11984;SDS011;6052;53.246;10.368;2024-03-08T11:24:38;18.27;;;10.30;;
11984;SDS011;6052;53.246;10.368;2024-03-08T11:27:12;18.53;;;9.93;;
11984;SDS011;6052;53.246;10.368;2024-03-08T11:29:44;15.70;;;9.50;;
11984;SDS011;6052;53.246;10.368;2024-03-08T11:32:14;17.60;;;9.07;;
11984;SDS011;6052;53.246;10.368;2024-03-08T11:34:46;16.73;;;9.77;;
11984;SDS011;6052;53.246;10.368;2024-03-08T11:37:17;15.03;;;8.87;;
11984;SDS011;6052;53.246;10.368;2024-03-08T11:39:48;16.90;;;9.77;;
11984;SDS011;6052;53.246;10.368;2024-03-08T11:42:19;15.53;;;9.70;;
11984;SDS011;6052;53.246;10.368;2024-03-08T11:44:52;14.70;;;9.30;;
11984;SDS011;6052;53.246;10.368;2024-03-08T11:47:23;16.77;;;9.97;;
11984;SDS011;6052;53.246;10.368;2024-03-08T11:49:53;16.27;;;9.90;;
11984;SDS011;6052;53.246;10.368;2024-03-08T11:52:22;20.73;;;10.27;;
11984;SDS011;6052;53.246;10.368;2024-03-08T11:54:53;17.80;;;10.07;;
11984;SDS011;6052;53.246;10.368;2024-03-08T11:57:25;15.87;;;9.33;;
11984;SDS011;6052;53.246;10.368;2024-03-08T11:59:58;16.60;;;9.90;;
11984;SDS011;6052;53.246;10.368;2024-03-08T12:02:33;17.40;;;10.00;;
11984;SDS011;6052;53.246;10.368;2024-03-08T12:05:05;14.37;;;9.27;;
11984;SDS011;6052;53.246;10.368;2024-03-08T12:07:36;16.13;;;9.53;;
11984;SDS011;6052;53.246;10.368;2024-03-08T12:10:16;14.70;;;9.20;;
11984;SDS011;6052;53.246;10.368;2024-03-08T12:12:49;15.97;;;9.60;;
11984;SDS011;6052;53.246;10.368;2024-03-08T12:15:23;18.10;;;8.87;;
11984;SDS011;6052;53.246;10.368;2024-03-08T12:17:54;14.63;;;8.40;;
11984;SDS011;6052;53.246;10.368;2024-03-08T12:20:25;16.77;;;8.70;;
11984;SDS011;6052;53.246;10.368;2024-03-08T12:22:56;15.83;;;8.90;;
11984;SDS011;6052;53.246;10.368;2024-03-08T12:25:27;14.73;;;8.47;;
11984;SDS011;6052;53.246;10.368;2024-03-08T12:28:08;14.70;;;8.93;;
11984;SDS011;6052;53.246;10.368;2024-03-08T12:30:47;14.77;;;9.10;;
11984;SDS011;6052;53.246;10.368;2024-03-08T12:33:19;15.40;;;9.20;;
11984;SDS011;6052;53.246;10.368;2024-03-08T12:35:53;15.40;;;8.93;;
11984;SDS011;6052;53.246;10.368;2024-03-08T12:38:27;16.13;;;8.53;;
11984;SDS011;6052;53.246;10.368;2024-03-08T12:40:58;16.53;;;9.10;;
11984;SDS011;6052;53.246;10.368;2024-03-08T12:43:29;17.23;;;9.63;;
11984;SDS011;6052;53.246;10.368;2024-03-08T12:46:03;16.13;;;8.60;;
11984;SDS011;6052;53.246;10.368;2024-03-08T12:48:35;19.27;;;9.23;;
11984;SDS011;6052;53.246;10.368;2024-03-08T12:51:07;13.20;;;8.63;;
11984;SDS011;6052;53.246;10.368;2024-03-08T12:53:37;14.63;;;8.73;;
11984;SDS011;6052;53.246;10.368;2024-03-08T12:56:07;15.17;;;9.17;;
11984;SDS011;6052;53.246;10.368;2024-03-08T12:58:37;13.80;;;8.13;;
11984;SDS011;6052;53.246;10.368;2024-03-08T13:01:11;14.10;;;8.60;;
11984;SDS011;6052;53.246;10.368;2024-03-08T13:03:41;16.80;;;9.33;;
11984;SDS011;6052;53.246;10.368;2024-03-08T13:06:12;14.17;;;9.00;;
11984;SDS011;6052;53.246;10.368;2024-03-08T13:08:42;14.50;;;8.50;;
11984;SDS011;6052;53.246;10.368;2024-03-08T13:11:12;14.43;;;8.40;;
11984;SDS011;6052;53.246;10.368;2024-03-08T13:13:43;15.93;;;8.53;;
11984;SDS011;6052;53.246;10.368;2024-03-08T13:16:15;12.80;;;8.50;;
11984;SDS011;6052;53.246;10.368;2024-03-08T13:18:46;17.83;;;9.83;;
11984;SDS011;6052;53.246;10.368;2024-03-08T13:21:20;14.10;;;8.47;;
11984;SDS011;6052;53.246;10.368;2024-03-08T13:23:51;15.73;;;8.80;;
11984;SDS011;6052;53.246;10.368;2024-03-08T13:26:21;12.80;;;7.60;;
11984;SDS011;6052;53.246;10.368;2024-03-08T13:28:52;11.57;;;7.53;;
11984;SDS011;6052;53.246;10.368;2024-03-08T13:31:25;12.70;;;8.00;;
11984;SDS011;6052;53.246;10.368;2024-03-08T13:33:55;16.03;;;8.17;;
11984;SDS011;6052;53.246;10.368;2024-03-08T13:36:26;15.27;;;7.87;;
11984;SDS011;6052;53.246;10.368;2024-03-08T13:39:05;13.07;;;7.70;;
11984;SDS011;6052;53.246;10.368;2024-03-08T13:41:41;18.83;;;7.90;;
11984;SDS011;6052;53.246;10.368;2024-03-08T13:44:11;11.33;;;7.50;;
11984;SDS011;6052;53.246;10.368;2024-03-08T13:46:44;19.00;;;7.70;;
11984;SDS011;6052;53.246;10.368;2024-03-08T13:49:19;10.37;;;6.63;;
11984;SDS011;6052;53.246;10.368;2024-03-08T13:51:49;11.13;;;6.93;;
11984;SDS011;6052;53.246;10.368;2024-03-08T13:54:21;12.00;;;7.30;;
11984;SDS011;6052;53.246;10.368;2024-03-08T13:56:50;11.70;;;7.03;;
11984;SDS011;6052;53.246;10.368;2024-03-08T13:59:34;11.03;;;6.67;;
11984;SDS011;6052;53.246;10.368;2024-03-08T14:02:07;11.10;;;6.83;;
11984;SDS011;6052;53.246;10.368;2024-03-08T14:04:40;10.93;;;6.47;;
11984;SDS011;6052;53.246;10.368;2024-03-08T14:07:10;28.40;;;8.13;;
11984;SDS011;6052;53.246;10.368;2024-03-08T14:09:40;15.30;;;7.03;;
11984;SDS011;6052;53.246;10.368;2024-03-08T14:12:11;27.87;;;6.87;;
11984;SDS011;6052;53.246;10.368;2024-03-08T14:14:41;15.03;;;7.30;;
11984;SDS011;6052;53.246;10.368;2024-03-08T14:17:13;11.47;;;6.53;;
11984;SDS011;6052;53.246;10.368;2024-03-08T14:19:44;11.43;;;6.50;;
11984;SDS011;6052;53.246;10.368;2024-03-08T14:22:14;14.23;;;7.23;;
11984;SDS011;6052;53.246;10.368;2024-03-08T14:24:44;12.20;;;6.53;;
11984;SDS011;6052;53.246;10.368;2024-03-08T14:27:14;14.13;;;6.90;;
11984;SDS011;6052;53.246;10.368;2024-03-08T14:29:45;10.13;;;6.00;;
11984;SDS011;6052;53.246;10.368;2024-03-08T14:32:18;10.37;;;6.33;;
11984;SDS011;6052;53.246;10.368;2024-03-08T14:34:52;10.83;;;6.60;;
11984;SDS011;6052;53.246;10.368;2024-03-08T14:37:22;11.77;;;6.87;;
11984;SDS011;6052;53.246;10.368;2024-03-08T14:39:56;12.80;;;7.20;;
11984;SDS011;6052;53.246;10.368;2024-03-08T14:42:26;41.77;;;8.73;;
11984;SDS011;6052;53.246;10.368;2024-03-08T14:45:00;12.37;;;7.10;;
11984;SDS011;6052;53.246;10.368;2024-03-08T14:47:33;10.30;;;6.27;;
11984;SDS011;6052;53.246;10.368;2024-03-08T14:50:05;15.83;;;7.20;;
11984;SDS011;6052;53.246;10.368;2024-03-08T14:52:36;12.93;;;7.03;;
11984;SDS011;6052;53.246;10.368;2024-03-08T14:55:07;11.97;;;7.23;;
11984;SDS011;6052;53.246;10.368;2024-03-08T14:57:40;10.50;;;7.13;;
11984;SDS011;6052;53.246;10.368;2024-03-08T15:00:12;10.83;;;6.83;;
11984;SDS011;6052;53.246;10.368;2024-03-08T15:02:56;11.50;;;7.30;;